Time;durP1;ratioP1;P1;durP2;ratioP2;P2;SDS_P1;SDS_P2;PMS_P1;PMS_P2;Temp;Humidity;BMP_temperature;BMP_pressure;BME280_temperature;BME280_humidity;BME280_pressure;Samples;Min_cycle;Max_cycle;Signal;HPM_P1;HPM_P2
2023/07/06 00:01:40;;;;;;;0.90;0.40;;;22.60;76.20;;;;;;5084291;28;47461;-70
2023/07/06 00:04:09;;;;;;;0.95;0.60;;;22.60;76.20;;;;;;5085552;28;45233;-69
2023/07/06 00:06:36;;;;;;;1.20;0.60;;;22.60;76.10;;;;;;5076413;28;45217;-70
2023/07/06 00:09:05;;;;;;;2.17;0.80;;;22.60;76.10;;;;;;5085511;28;45364;-70
2023/07/06 00:11:35;;;;;;;1.40;0.65;;;22.60;76.10;;;;;;5084657;27;48010;-71
2023/07/06 00:14:02;;;;;;;2.17;0.73;;;22.60;76.10;;;;;;5084808;28;45478;-70
2023/07/06 00:16:29;;;;;;;0.68;0.47;;;22.60;76.00;;;;;;5085187;27;45376;-70
2023/07/06 00:18:58;;;;;;;1.10;0.60;;;22.60;76.00;;;;;;5083928;28;45710;-70
2023/07/06 00:21:26;;;;;;;1.15;0.70;;;22.60;76.00;;;;;;5088460;27;46315;-70
2023/07/06 00:23:53;;;;;;;1.40;0.70;;;22.60;76.00;;;;;;5085283;27;45479;-70
2023/07/06 00:26:20;;;;;;;1.45;0.70;;;22.60;76.10;;;;;;5084555;28;45390;-71
2023/07/06 00:28:49;;;;;;;2.67;0.93;;;22.60;76.10;;;;;;5084769;28;45363;-70
2023/07/06 00:31:21;;;;;;;0.60;0.40;;;22.60;77.10;;;;;;5082549;28;45523;-70
2023/07/06 00:33:48;;;;;;;1.80;0.70;;;22.60;76.10;;;;;;5088032;27;45535;-71
2023/07/06 00:36:15;;;;;;;0.60;0.57;;;22.60;76.10;;;;;;5090538;27;45395;-70
2023/07/06 00:38:44;;;;;;;1.20;0.70;;;22.60;76.10;;;;;;5089798;27;45323;-70
2023/07/06 00:41:12;;;;;;;1.02;0.68;;;22.60;76.20;;;;;;5092321;27;47081;-70
2023/07/06 00:43:52;;;;;;;1.40;0.70;;;22.60;76.20;;;;;;5098163;27;45626;-70
2023/07/06 00:46:20;;;;;;;0.60;0.50;;;22.60;76.10;;;;;;5086381;27;45624;-70
2023/07/06 00:48:51;;;;;;;1.42;0.70;;;22.60;76.10;;;;;;5095204;27;45700;-70
2023/07/06 00:51:21;;;;;;;3.03;0.80;;;22.60;76.10;;;;;;5087292;27;47084;-70
2023/07/06 00:53:56;;;;;;;0.70;0.55;;;22.60;76.20;;;;;;5085030;27;45278;-70
2023/07/06 00:56:28;;;;;;;1.70;0.60;;;22.60;76.10;;;;;;5092541;27;45439;-70
2023/07/06 00:59:05;;;;;;;1.30;0.63;;;22.60;76.00;;;;;;5089113;27;45410;-70
2023/07/06 01:01:35;;;;;;;1.50;0.50;;;22.60;76.10;;;;;;5083490;27;46468;-70
2023/07/06 01:04:03;;;;;;;1.90;0.60;;;22.60;76.10;;;;;;5084090;28;45206;-70
2023/07/06 01:06:34;;;;;;;1.25;0.65;;;22.60;76.00;;;;;;5084124;28;45345;-70
2023/07/06 01:09:04;;;;;;;0.80;0.60;;;22.60;75.90;;;;;;5083774;28;45380;-70
2023/07/06 01:11:31;;;;;;;0.73;0.60;;;22.60;76.00;;;;;;5083905;27;47487;-70
2023/07/06 01:13:58;;;;;;;1.20;0.80;;;22.60;75.90;;;;;;5084068;27;45406;-70
2023/07/06 01:16:33;;;;;;;0.77;0.60;;;22.60;75.80;;;;;;5082803;28;45518;-70
2023/07/06 01:19:08;;;;;;;0.50;0.50;;;22.60;75.90;;;;;;5075777;27;45438;-70
2023/07/06 01:21:43;;;;;;;0.95;0.70;;;22.60;75.70;;;;;;5079797;27;48423;-70
2023/07/06 01:24:44;;;;;;;0.70;0.60;;;22.60;76.70;;;;;;5083946;28;45322;-69
2023/07/06 01:27:37;;;;;;;0.85;0.65;;;22.60;75.60;;;;;;5071619;28;45335;-70
2023/07/06 01:30:35;;;;;;;0.90;0.60;;;22.50;75.50;;;;;;5062232;28;45428;-70
2023/07/06 01:33:10;;;;;;;0.73;0.73;;;22.60;75.40;;;;;;5066659;28;46597;-70
2023/07/06 01:35:45;;;;;;;2.78;0.60;;;22.60;75.60;;;;;;5084325;28;45349;-70
2023/07/06 01:38:13;;;;;;;1.50;0.80;;;22.50;75.40;;;;;;5073940;28;45402;-70
2023/07/06 01:40:40;;;;;;;1.70;0.57;;;22.60;75.60;;;;;;5069969;28;45483;-70
2023/07/06 01:43:07;;;;;;;1.00;0.70;;;22.50;75.50;;;;;;5083799;28;45381;-71
2023/07/06 01:45:35;;;;;;;0.95;0.60;;;22.60;75.60;;;;;;5066821;28;45353;-70
2023/07/06 01:48:06;;;;;;;0.88;0.68;;;22.50;75.50;;;;;;5083843;28;45354;-70
2023/07/06 01:50:42;;;;;;;3.70;0.60;;;22.60;75.60;;;;;;5070759;28;45309;-70
2023/07/06 01:53:14;;;;;;;0.90;0.65;;;22.60;75.50;;;;;;5066501;28;45364;-70
2023/07/06 01:55:44;;;;;;;3.67;0.70;;;22.60;75.40;;;;;;5061151;28;45419;-70
2023/07/06 01:58:17;;;;;;;1.35;0.70;;;22.60;75.40;;;;;;5082573;28;45395;-70
2023/07/06 02:00:49;;;;;;;1.38;0.77;;;22.60;75.40;;;;;;5062749;28;45334;-70
2023/07/06 02:03:18;;;;;;;1.38;0.65;;;22.60;75.40;;;;;;5071844;28;48017;-70
2023/07/06 02:05:45;;;;;;;1.77;0.60;;;22.60;75.30;;;;;;5067283;28;45387;-70
2023/07/06 02:08:13;;;;;;;0.73;0.73;;;22.60;75.30;;;;;;5069502;28;45392;-71
2023/07/06 02:10:40;;;;;;;1.08;0.65;;;22.60;75.20;;;;;;5069111;27;45590;-70
2023/07/06 02:13:07;;;;;;;1.23;0.60;;;22.50;75.10;;;;;;5068614;28;46419;-70
2023/07/06 02:15:33;;;;;;;0.90;0.60;;;22.50;75.50;;;;;;5066991;28;45463;-71
2023/07/06 02:18:01;;;;;;;0.88;0.70;;;22.60;75.00;;;;;;5074619;28;45403;-71
2023/07/06 02:20:30;;;;;;;0.50;0.50;;;22.50;74.80;;;;;;5082416;28;45439;-70
2023/07/06 02:22:56;;;;;;;1.55;0.60;;;22.50;74.80;;;;;;5071770;28;47385;-70
2023/07/06 02:25:23;;;;;;;0.82;0.50;;;22.50;74.70;;;;;;5080587;28;45453;-70
2023/07/06 02:27:50;;;;;;;1.27;0.50;;;22.50;74.70;;;;;;5082488;28;45599;-71
2023/07/06 02:30:17;;;;;;;2.92;0.60;;;22.50;74.70;;;;;;5071100;28;45300;-71
2023/07/06 02:32:46;;;;;;;1.17;0.73;;;22.50;74.50;;;;;;5064188;28;46837;-71
2023/07/06 02:35:13;;;;;;;1.48;0.70;;;22.50;74.50;;;;;;5083002;28;45521;-70
2023/07/06 02:37:41;;;;;;;0.98;0.68;;;22.50;74.40;;;;;;5074105;28;45325;-70
2023/07/06 02:40:10;;;;;;;0.88;0.50;;;22.50;74.40;;;;;;5064581;28;45502;-70
2023/07/06 02:42:37;;;;;;;2.28;0.80;;;22.50;74.40;;;;;;5058265;28;48077;-70
2023/07/06 02:45:05;;;;;;;4.55;0.93;;;22.50;74.30;;;;;;5075105;28;45703;-71
2023/07/06 02:47:32;;;;;;;1.42;0.70;;;22.50;74.30;;;;;;5062535;28;45305;-71
2023/07/06 02:49:59;;;;;;;0.98;0.70;;;22.50;74.30;;;;;;5062417;28;45412;-70
2023/07/06 02:52:26;;;;;;;0.50;0.40;;;22.50;74.30;;;;;;5061452;28;46557;-70
2023/07/06 02:54:54;;;;;;;1.48;0.65;;;22.50;74.20;;;;;;5079230;28;45314;-70
2023/07/06 02:57:21;;;;;;;1.15;0.65;;;22.50;74.10;;;;;;5072158;28;45369;-70
2023/07/06 02:59:48;;;;;;;1.52;0.88;;;22.50;74.10;;;;;;5063434;28;45526;-70
2023/07/06 03:02:15;;;;;;;0.60;0.60;;;22.50;74.10;;;;;;5063656;28;46635;-71
2023/07/06 03:04:41;;;;;;;3.25;0.73;;;22.50;74.10;;;;;;5071536;28;45233;-70
2023/07/06 03:07:09;;;;;;;1.30;0.77;;;22.50;74.10;;;;;;5059326;28;45435;-70
2023/07/06 03:09:36;;;;;;;1.83;0.70;;;22.50;74.00;;;;;;5074516;28;45296;-71
2023/07/06 03:12:05;;;;;;;2.05;0.68;;;22.50;73.90;;;;;;5074653;28;46382;-70
2023/07/06 03:14:33;;;;;;;1.05;0.60;;;22.50;74.00;;;;;;5056800;28;45467;-71
2023/07/06 03:16:59;;;;;;;2.30;0.50;;;22.50;73.90;;;;;;5082494;28;45324;-70
2023/07/06 03:19:26;;;;;;;1.83;0.80;;;22.50;73.90;;;;;;5063353;28;45321;-70
2023/07/06 03:21:58;;;;;;;2.35;0.70;;;22.50;73.80;;;;;;5064462;28;46644;-70
2023/07/06 03:24:26;;;;;;;1.05;0.80;;;22.50;73.80;;;;;;5069418;28;45497;-70
2023/07/06 03:26:53;;;;;;;0.75;0.68;;;22.50;73.70;;;;;;5072010;28;45403;-70
2023/07/06 03:29:22;;;;;;;4.28;0.65;;;22.50;73.80;;;;;;5081958;27;45513;-70
2023/07/06 03:31:48;;;;;;;1.40;0.65;;;22.50;73.50;;;;;;5088279;27;47042;-71
2023/07/06 03:34:15;;;;;;;0.70;0.55;;;22.50;73.50;;;;;;5080746;28;45462;-71
2023/07/06 03:36:42;;;;;;;1.30;0.75;;;22.50;73.60;;;;;;5081033;28;45419;-70
2023/07/06 03:39:12;;;;;;;0.73;0.60;;;22.50;73.40;;;;;;5081670;28;45365;-70
2023/07/06 03:41:39;;;;;;;0.70;0.68;;;22.50;73.40;;;;;;5085612;27;47401;-70
2023/07/06 03:44:06;;;;;;;1.33;0.60;;;22.50;73.40;;;;;;5088946;27;45433;-70
2023/07/06 03:46:34;;;;;;;1.33;0.63;;;22.50;73.30;;;;;;5090276;27;45382;-70
2023/07/06 03:49:03;;;;;;;2.47;0.73;;;22.50;73.30;;;;;;5081594;27;45304;-70
2023/07/06 03:51:30;;;;;;;1.73;0.68;;;22.50;73.30;;;;;;5079169;27;46422;-71
2023/07/06 03:53:56;;;;;;;1.05;0.60;;;22.50;73.30;;;;;;5078067;28;45742;-70
2023/07/06 03:56:27;;;;;;;1.70;0.73;;;22.50;73.60;;;;;;5081975;27;45390;-70
2023/07/06 03:58:56;;;;;;;0.82;0.68;;;22.50;73.20;;;;;;5081269;28;45279;-70
2023/07/06 04:01:23;;;;;;;1.80;0.75;;;22.50;73.30;;;;;;5081872;27;47740;-70
2023/07/06 04:03:52;;;;;;;1.75;0.70;;;22.50;73.30;;;;;;5088546;27;45402;-70
2023/07/06 04:06:19;;;;;;;1.50;0.63;;;22.50;73.20;;;;;;5080184;27;45396;-70
2023/07/06 04:08:46;;;;;;;0.70;0.60;;;22.50;73.30;;;;;;5081294;27;45341;-71
2023/07/06 04:11:13;;;;;;;1.80;0.77;;;22.50;73.10;;;;;;5083842;27;47599;-71
2023/07/06 04:13:40;;;;;;;0.95;0.60;;;22.50;73.10;;;;;;5081461;28;45393;-71
2023/07/06 04:16:09;;;;;;;2.47;0.80;;;22.50;73.10;;;;;;5086325;27;45495;-70
2023/07/06 04:18:36;;;;;;;0.85;0.70;;;22.50;73.10;;;;;;5081642;27;45443;-70
2023/07/06 04:21:04;;;;;;;3.08;1.00;;;22.50;73.10;;;;;;5081969;27;47372;-70
2023/07/06 04:23:31;;;;;;;2.33;0.60;;;22.50;73.10;;;;;;5082055;27;45296;-70
2023/07/06 04:25:59;;;;;;;1.33;0.77;;;22.50;73.20;;;;;;5081525;27;45345;-70
2023/07/06 04:28:26;;;;;;;1.17;0.55;;;22.50;73.10;;;;;;5081800;27;45397;-70
2023/07/06 04:30:52;;;;;;;1.50;0.70;;;22.50;73.10;;;;;;5077153;28;47309;-70
2023/07/06 04:33:20;;;;;;;3.92;0.70;;;22.50;72.90;;;;;;5084760;27;45328;-70
2023/07/06 04:35:51;;;;;;;3.13;1.20;;;22.50;73.10;;;;;;5084602;28;45526;-70
2023/07/06 04:38:19;;;;;;;1.92;0.90;;;22.40;72.80;;;;;;5084773;28;45418;-70
2023/07/06 04:40:46;;;;;;;1.88;0.90;;;22.40;72.90;;;;;;5083927;28;48571;-71
2023/07/06 04:43:14;;;;;;;1.10;0.63;;;22.40;72.60;;;;;;5084405;27;45265;-70
2023/07/06 04:45:41;;;;;;;0.88;0.50;;;22.40;72.70;;;;;;5084572;27;45412;-70
2023/07/06 04:48:10;;;;;;;1.55;0.52;;;22.40;72.60;;;;;;5084728;27;45504;-71
2023/07/06 04:50:38;;;;;;;1.23;0.65;;;22.40;72.40;;;;;;5084034;27;47207;-70
2023/07/06 04:53:07;;;;;;;2.00;1.10;;;22.40;72.50;;;;;;5084824;27;45515;-69
2023/07/06 04:55:36;;;;;;;1.98;0.73;;;22.40;72.10;;;;;;5085622;27;45466;-69
2023/07/06 04:58:05;;;;;;;2.78;0.60;;;22.50;72.70;;;;;;5084934;28;45256;-69
2023/07/06 05:00:34;;;;;;;2.45;0.90;;;22.40;73.40;;;;;;5087552;27;48171;-68
2023/07/06 05:03:02;;;;;;;1.63;0.90;;;22.50;72.50;;;;;;5086018;27;45246;-69
2023/07/06 05:05:32;;;;;;;2.75;0.60;;;22.50;72.30;;;;;;5086496;27;45630;-68
2023/07/06 05:07:59;;;;;;;0.95;0.65;;;22.50;72.30;;;;;;5084491;28;45372;-69
2023/07/06 05:10:27;;;;;;;1.55;0.75;;;22.50;72.30;;;;;;5085483;27;45590;-69
2023/07/06 05:12:56;;;;;;;2.28;0.70;;;22.50;72.20;;;;;;5083980;28;45416;-69
2023/07/06 05:15:23;;;;;;;3.58;1.00;;;22.50;72.20;;;;;;5093202;27;45396;-69
2023/07/06 05:17:50;;;;;;;1.52;0.70;;;22.50;72.20;;;;;;5084637;28;45350;-69
2023/07/06 05:20:18;;;;;;;1.88;0.80;;;22.50;72.10;;;;;;5082510;27;47500;-70
2023/07/06 05:22:48;;;;;;;3.40;0.90;;;22.50;72.00;;;;;;5093400;27;45541;-70
2023/07/06 05:25:17;;;;;;;1.67;0.68;;;22.50;71.80;;;;;;5084815;28;45265;-70
2023/07/06 05:27:44;;;;;;;3.17;0.80;;;22.40;71.10;;;;;;5081019;27;45552;-70
2023/07/06 05:30:12;;;;;;;1.73;0.70;;;22.40;70.80;;;;;;5085820;27;47116;-69
2023/07/06 05:32:40;;;;;;;1.60;0.77;;;22.40;70.40;;;;;;5085990;27;46188;-69
2023/07/06 05:35:07;;;;;;;2.47;1.00;;;22.40;70.00;;;;;;5088954;27;45527;-70
2023/07/06 05:37:34;;;;;;;1.70;0.75;;;22.40;70.20;;;;;;5083995;28;45345;-69
2023/07/06 05:40:04;;;;;;;1.50;0.55;;;22.40;70.10;;;;;;5087041;27;46300;-69
2023/07/06 05:42:30;;;;;;;2.47;0.82;;;22.40;70.30;;;;;;5084747;27;45885;-69
2023/07/06 05:44:57;;;;;;;1.38;0.60;;;22.40;70.40;;;;;;5082701;27;45277;-70
2023/07/06 05:47:26;;;;;;;4.25;1.02;;;22.40;70.50;;;;;;5082582;27;45281;-69
2023/07/06 05:49:53;;;;;;;1.42;0.85;;;22.40;70.70;;;;;;5085892;27;47975;-69
2023/07/06 05:52:20;;;;;;;3.88;0.93;;;22.40;70.80;;;;;;5091185;27;45353;-70
2023/07/06 05:54:47;;;;;;;1.08;0.70;;;22.40;70.90;;;;;;5083978;27;45376;-70
2023/07/06 05:57:16;;;;;;;1.50;0.50;;;22.40;70.90;;;;;;5082683;28;45506;-70
2023/07/06 05:59:43;;;;;;;3.35;1.13;;;22.40;71.00;;;;;;5074747;27;46263;-70
2023/07/06 06:02:12;;;;;;;2.22;0.60;;;22.40;71.00;;;;;;5083235;28;45802;-69
2023/07/06 06:04:40;;;;;;;1.50;0.70;;;22.50;71.40;;;;;;5092145;27;45493;-69
2023/07/06 06:07:07;;;;;;;2.47;0.70;;;22.50;71.30;;;;;;5083623;28;45530;-70
2023/07/06 06:09:34;;;;;;;1.98;1.02;;;22.50;71.40;;;;;;5083194;28;45744;-69
2023/07/06 06:12:03;;;;;;;2.28;1.00;;;22.50;71.40;;;;;;5082145;28;45323;-69
2023/07/06 06:14:30;;;;;;;1.52;0.82;;;22.50;71.40;;;;;;5088563;27;45470;-70
2023/07/06 06:16:57;;;;;;;2.53;1.17;;;22.50;71.40;;;;;;5090042;27;45460;-70
2023/07/06 06:19:24;;;;;;;1.90;0.82;;;22.50;72.50;;;;;;5083234;28;47702;-70
2023/07/06 06:21:53;;;;;;;1.65;0.73;;;22.50;71.50;;;;;;5088191;27;45444;-70
2023/07/06 06:24:21;;;;;;;2.65;0.70;;;22.50;71.50;;;;;;5088967;27;45485;-70
2023/07/06 06:26:48;;;;;;;3.03;1.15;;;22.50;71.60;;;;;;5083054;27;45293;-70
2023/07/06 06:29:14;;;;;;;4.13;0.80;;;22.50;71.50;;;;;;5083420;27;47085;-70
2023/07/06 06:31:43;;;;;;;1.95;0.90;;;22.50;71.60;;;;;;5078893;28;45510;-70
2023/07/06 06:34:10;;;;;;;1.42;0.75;;;22.50;71.60;;;;;;5090007;27;45453;-69
2023/07/06 06:36:36;;;;;;;2.15;0.73;;;22.50;71.70;;;;;;5081639;27;45391;-68
2023/07/06 06:39:05;;;;;;;2.08;0.80;;;22.50;71.70;;;;;;5077989;28;47121;-68
2023/07/06 06:41:31;;;;;;;2.92;0.80;;;22.50;71.80;;;;;;5080246;27;45870;-68
2023/07/06 06:43:58;;;;;;;3.03;0.80;;;22.50;71.80;;;;;;5082568;27;45376;-68
2023/07/06 06:46:25;;;;;;;1.90;0.73;;;22.50;71.90;;;;;;5081032;28;45479;-68
2023/07/06 06:48:53;;;;;;;1.60;0.70;;;22.50;72.00;;;;;;5083689;27;47638;-68
2023/07/06 06:51:19;;;;;;;2.00;0.80;;;22.40;71.90;;;;;;5082021;28;46443;-68
2023/07/06 06:53:46;;;;;;;1.73;0.73;;;22.40;71.90;;;;;;5086817;27;45542;-69
2023/07/06 06:56:14;;;;;;;1.90;0.90;;;22.40;72.00;;;;;;5081735;28;45501;-69
2023/07/06 06:58:41;;;;;;;2.10;0.93;;;22.40;72.00;;;;;;5082423;28;45289;-69
2023/07/06 07:01:09;;;;;;;2.58;0.88;;;22.40;71.90;;;;;;5082393;28;45339;-69
2023/07/06 07:03:36;;;;;;;2.13;0.80;;;22.40;72.00;;;;;;5082771;28;45296;-69
2023/07/06 07:06:11;;;;;;;1.70;0.75;;;22.40;72.00;;;;;;5084234;28;45514;-68
2023/07/06 07:08:39;;;;;;;2.33;0.80;;;22.50;72.10;;;;;;5081076;28;45373;-69
2023/07/06 07:11:06;;;;;;;1.70;0.88;;;22.50;72.00;;;;;;5081722;28;45436;-69
2023/07/06 07:13:35;;;;;;;1.77;0.85;;;22.50;72.10;;;;;;5090915;27;45482;-69
2023/07/06 07:16:01;;;;;;;1.48;0.60;;;22.50;72.10;;;;;;5083418;27;45695;-70
2023/07/06 07:18:28;;;;;;;1.52;0.80;;;22.50;72.10;;;;;;5090062;27;45503;-69
2023/07/06 07:20:55;;;;;;;1.92;0.90;;;22.50;73.20;;;;;;5081756;28;45229;-70
2023/07/06 07:23:24;;;;;;;2.00;0.75;;;22.50;72.30;;;;;;5081443;28;45537;-70
2023/07/06 07:25:51;;;;;;;2.53;0.93;;;22.50;72.40;;;;;;5081747;27;45273;-70
2023/07/06 07:28:19;;;;;;;2.13;0.75;;;22.50;72.40;;;;;;5081562;28;47149;-70
2023/07/06 07:30:56;;;;;;;6.25;1.20;;;22.50;72.50;;;;;;5080844;28;45214;-69
2023/07/06 07:33:23;;;;;;;5.38;1.40;;;22.50;72.80;;;;;;5082509;28;45341;-68
2023/07/06 07:35:51;;;;;;;14.65;2.42;;;22.50;73.70;;;;;;5082620;28;45245;-68
2023/07/06 07:38:19;;;;;;;11.27;2.08;;;22.50;72.90;;;;;;5082088;28;47516;-69
2023/07/06 07:40:54;;;;;;;5.40;1.38;;;22.50;72.90;;;;;;5080710;28;45524;-69
2023/07/06 07:43:25;;;;;;;8.52;1.52;;;22.50;72.90;;;;;;5080592;28;45392;-70
2023/07/06 07:45:55;;;;;;;4.18;1.42;;;22.50;72.90;;;;;;5078078;27;45453;-70
2023/07/06 07:48:23;;;;;;;3.88;1.25;;;22.50;72.80;;;;;;5082579;27;46252;-70
2023/07/06 07:50:50;;;;;;;3.78;0.98;;;22.50;72.80;;;;;;5081566;28;45411;-70
2023/07/06 07:53:17;;;;;;;5.10;1.02;;;22.50;73.00;;;;;;5081329;28;45409;-70
2023/07/06 07:55:44;;;;;;;5.20;0.90;;;22.50;73.10;;;;;;5076539;28;45452;-70
2023/07/06 07:58:12;;;;;;;5.95;1.20;;;22.50;73.10;;;;;;5080748;28;45380;-70
2023/07/06 08:00:39;;;;;;;3.83;1.00;;;22.50;73.20;;;;;;5081155;28;45433;-70
2023/07/06 08:03:07;;;;;;;3.05;1.10;;;22.60;73.20;;;;;;5082456;27;45331;-70
2023/07/06 08:05:37;;;;;;;3.92;0.90;;;22.60;74.30;;;;;;5082467;27;45399;-70
2023/07/06 08:08:05;;;;;;;2.42;0.85;;;22.60;73.40;;;;;;5084112;28;47053;-70
2023/07/06 08:10:35;;;;;;;3.45;1.10;;;22.60;73.50;;;;;;5082570;27;45395;-70
2023/07/06 08:13:02;;;;;;;2.45;0.93;;;22.60;73.60;;;;;;5083483;28;45424;-70
2023/07/06 08:15:29;;;;;;;2.40;0.80;;;22.60;73.60;;;;;;5082538;28;45491;-70
2023/07/06 08:17:59;;;;;;;2.45;1.00;;;22.60;73.60;;;;;;5082095;27;47116;-71
2023/07/06 08:20:29;;;;;;;2.75;1.00;;;22.60;73.50;;;;;;5091219;27;45748;-70
2023/07/06 08:22:57;;;;;;;1.67;0.70;;;22.60;73.60;;;;;;5093714;27;45498;-71
2023/07/06 08:25:25;;;;;;;1.88;0.90;;;22.60;73.60;;;;;;5088748;27;45596;-70
2023/07/06 08:27:51;;;;;;;5.93;0.90;;;22.60;73.50;;;;;;5084380;28;46607;-70
2023/07/06 08:30:20;;;;;;;2.78;1.00;;;22.70;73.60;;;;;;5090418;27;45321;-71
2023/07/06 08:32:48;;;;;;;2.13;0.90;;;22.70;73.40;;;;;;5089427;27;45574;-71
2023/07/06 08:35:15;;;;;;;3.10;1.02;;;22.70;73.30;;;;;;5085553;28;45250;-70
2023/07/06 08:37:43;;;;;;;2.58;1.00;;;22.60;73.40;;;;;;5084347;28;45353;-70
2023/07/06 08:40:17;;;;;;;1.75;0.95;;;22.70;73.40;;;;;;5084657;27;45504;-70
2023/07/06 08:42:46;;;;;;;1.13;0.82;;;22.70;73.50;;;;;;5076425;28;45452;-70
2023/07/06 08:45:17;;;;;;;3.67;0.90;;;22.70;73.40;;;;;;5084026;27;45416;-71
2023/07/06 08:47:45;;;;;;;2.08;0.80;;;22.70;73.50;;;;;;5086696;28;48346;-70
2023/07/06 08:50:12;;;;;;;3.22;0.73;;;22.70;73.40;;;;;;5084093;28;45596;-70
2023/07/06 08:52:40;;;;;;;3.83;1.30;;;22.70;73.70;;;;;;5086494;27;45479;-70
2023/07/06 08:55:13;;;;;;;1.40;0.75;;;22.70;73.80;;;;;;5082473;27;45375;-70
2023/07/06 08:57:41;;;;;;;1.88;0.77;;;22.70;73.90;;;;;;5083579;27;46174;-70
2023/07/06 09:00:19;;;;;;;0.82;0.50;;;22.70;73.90;;;;;;5086608;27;45298;-71
2023/07/06 09:02:48;;;;;;;0.75;0.68;;;22.70;73.90;;;;;;5088582;27;45407;-70
2023/07/06 09:05:16;;;;;;;1.90;0.88;;;22.70;73.60;;;;;;5096468;27;45500;-70
2023/07/06 09:07:45;;;;;;;1.95;0.77;;;22.70;73.60;;;;;;5085532;27;46370;-71
2023/07/06 09:10:15;;;;;;;1.83;0.73;;;22.70;73.60;;;;;;5081144;28;45496;-70
2023/07/06 09:12:42;;;;;;;1.15;0.65;;;22.70;73.60;;;;;;5082166;28;45310;-70
2023/07/06 09:15:09;;;;;;;3.30;1.00;;;22.70;73.60;;;;;;5090049;27;45314;-71
2023/07/06 09:17:45;;;;;;;0.98;0.55;;;22.70;73.80;;;;;;5083470;27;47517;-70
2023/07/06 09:20:14;;;;;;;2.30;0.80;;;22.70;73.80;;;;;;5081600;27;45375;-71
2023/07/06 09:22:41;;;;;;;1.15;0.75;;;22.70;73.80;;;;;;5082645;27;45277;-71
2023/07/06 09:25:17;;;;;;;2.10;0.77;;;22.70;73.90;;;;;;5084283;27;45300;-71
2023/07/06 09:27:47;;;;;;;1.35;0.60;;;22.70;73.70;;;;;;5083659;28;47666;-70
2023/07/06 09:30:29;;;;;;;2.05;0.80;;;22.70;73.50;;;;;;5090688;27;45271;-71
2023/07/06 09:33:04;;;;;;;1.92;0.85;;;22.70;73.30;;;;;;5077543;28;45332;-71
2023/07/06 09:35:31;;;;;;;1.75;0.63;;;22.70;73.30;;;;;;5084095;28;45395;-70
2023/07/06 09:37:58;;;;;;;1.13;0.70;;;22.70;73.40;;;;;;5092101;27;46411;-70
2023/07/06 09:40:30;;;;;;;2.03;0.90;;;22.70;73.40;;;;;;5086251;27;45280;-72
2023/07/06 09:42:57;;;;;;;1.33;0.63;;;22.70;73.00;;;;;;5081562;28;45602;-70
2023/07/06 09:45:26;;;;;;;0.88;0.40;;;22.70;72.40;;;;;;5084182;28;45372;-70
2023/07/06 09:47:56;;;;;;;1.35;0.60;;;22.70;72.20;;;;;;5084023;27;45329;-69
2023/07/06 09:50:27;;;;;;;1.30;0.60;;;22.70;72.40;;;;;;5083163;27;45312;-68
2023/07/06 09:52:56;;;;;;;1.38;0.52;;;22.70;72.40;;;;;;5091080;27;45421;-68
2023/07/06 09:55:29;;;;;;;1.95;0.80;;;22.70;71.80;;;;;;5082927;28;45352;-69
2023/07/06 09:57:58;;;;;;;1.05;0.60;;;22.70;71.10;;;;;;5083358;28;48205;-70
2023/07/06 10:00:31;;;;;;;1.13;0.57;;;22.70;70.70;;;;;;5086642;27;45272;-70
2023/07/06 10:03:08;;;;;;;1.17;0.70;;;22.80;71.00;;;;;;5084082;28;45517;-68
2023/07/06 10:05:41;;;;;;;1.48;0.50;;;22.80;70.90;;;;;;5079196;27;45544;-68
2023/07/06 10:08:12;;;;;;;0.47;0.43;;;22.80;71.20;;;;;;5077980;27;45352;-68
2023/07/06 10:10:49;;;;;;;0.70;0.50;;;22.80;71.10;;;;;;5082217;28;45369;-69
2023/07/06 10:13:28;;;;;;;0.75;0.52;;;22.80;71.00;;;;;;5084257;27;45395;-70
2023/07/06 10:16:03;;;;;;;1.17;0.57;;;22.80;71.20;;;;;;5076761;28;45337;-70
2023/07/06 10:18:35;;;;;;;1.98;0.70;;;22.80;71.00;;;;;;5091302;27;46319;-68
2023/07/06 10:21:09;;;;;;;0.77;0.60;;;22.80;71.00;;;;;;5094151;27;45312;-69
2023/07/06 10:23:46;;;;;;;1.13;0.50;;;22.80;70.80;;;;;;5084615;27;45380;-69
2023/07/06 10:26:21;;;;;;;1.98;0.80;;;22.80;70.60;;;;;;5082506;28;45451;-69
2023/07/06 10:28:56;;;;;;;1.10;0.70;;;22.80;70.80;;;;;;5055149;28;47757;-71
2023/07/06 10:31:29;;;;;;;1.48;0.98;;;22.80;70.80;;;;;;5061065;28;45301;-70
2023/07/06 10:33:59;;;;;;;1.25;0.90;;;22.80;70.70;;;;;;5063337;28;45422;-70
2023/07/06 10:36:32;;;;;;;4.50;0.85;;;22.80;70.50;;;;;;5063242;28;45228;-70
2023/07/06 10:38:59;;;;;;;7.53;1.23;;;22.80;74.20;;;;;;5067648;28;46596;-71
2023/07/06 10:41:31;;;;;;;4.80;1.15;;;22.90;79.00;;;;;;5074395;28;45210;-70
2023/07/06 10:44:02;;;;;;;4.80;0.95;;;22.90;77.30;;;;;;5071461;28;45428;-70
2023/07/06 10:46:35;;;;;;;2.67;0.63;;;22.80;76.10;;;;;;5062886;28;45286;-70
2023/07/06 10:49:16;;;;;;;2.83;0.88;;;22.80;76.10;;;;;;5062000;28;48944;-69
2023/07/06 10:51:50;;;;;;;1.98;0.68;;;22.80;76.00;;;;;;5061086;28;45317;-69
2023/07/06 10:54:19;;;;;;;2.50;0.80;;;22.80;75.70;;;;;;5062676;28;45504;-69
2023/07/06 10:57:00;;;;;;;1.48;0.82;;;22.80;75.70;;;;;;5062771;28;45368;-70
2023/07/06 10:59:37;;;;;;;1.50;0.80;;;22.80;75.80;;;;;;5062108;28;47117;-70
2023/07/06 11:02:19;;;;;;;0.60;0.50;;;22.80;75.70;;;;;;5062462;28;45509;-70
2023/07/06 11:05:07;;;;;;;2.05;0.90;;;22.80;76.00;;;;;;5071229;28;45527;-70
2023/07/06 11:07:50;;;;;;;1.35;0.63;;;22.80;76.20;;;;;;5066978;28;45508;-70
2023/07/06 11:10:33;;;;;;;1.65;0.60;;;22.80;76.30;;;;;;5061802;28;45501;-70
2023/07/06 11:13:16;;;;;;;2.40;0.80;;;22.80;76.30;;;;;;5057177;28;45483;-69
2023/07/06 11:15:59;;;;;;;1.25;0.60;;;22.80;76.90;;;;;;5061583;28;45446;-70
2023/07/06 11:18:32;;;;;;;2.08;0.60;;;22.80;77.10;;;;;;5062814;28;45528;-69
2023/07/06 11:21:02;;;;;;;1.13;0.70;;;22.80;76.90;;;;;;5063009;28;47932;-70
2023/07/06 11:23:35;;;;;;;2.05;0.75;;;22.80;77.10;;;;;;5062187;28;45287;-70
2023/07/06 11:26:07;;;;;;;1.15;0.60;;;22.90;77.40;;;;;;5067844;28;45313;-70
2023/07/06 11:28:34;;;;;;;0.40;0.40;;;22.90;77.80;;;;;;5081419;28;45372;-70
2023/07/06 11:31:10;;;;;;;0.90;0.50;;;22.90;77.70;;;;;;5086472;27;47821;-70
2023/07/06 11:33:45;;;;;;;2.33;0.60;;;22.90;77.90;;;;;;5083672;27;45356;-70
2023/07/06 11:36:21;;;;;;;0.55;0.50;;;22.90;77.70;;;;;;5082020;28;45387;-70
2023/07/06 11:39:03;;;;;;;0.68;0.45;;;22.90;78.20;;;;;;5076214;28;45469;-70
2023/07/06 11:41:42;;;;;;;2.75;0.57;;;22.90;78.20;;;;;;5083156;27;46528;-70
2023/07/06 11:44:29;;;;;;;0.88;0.60;;;23.00;78.70;;;;;;5091159;27;45437;-70
2023/07/06 11:47:28;;;;;;;1.15;0.40;;;23.00;78.90;;;;;;5086582;28;45353;-70
2023/07/06 11:49:59;;;;;;;2.40;0.95;;;23.00;78.90;;;;;;5084963;28;45386;-70
2023/07/06 11:52:30;;;;;;;0.52;0.50;;;23.00;78.70;;;;;;5085149;28;47317;-70
2023/07/06 11:55:15;;;;;;;0.98;0.57;;;23.00;78.50;;;;;;5091292;27;45982;-70
2023/07/06 11:58:04;;;;;;;1.80;0.65;;;23.00;78.50;;;;;;5088690;27;45479;-70
2023/07/06 12:00:48;;;;;;;1.77;0.60;;;23.00;78.20;;;;;;5087717;27;45463;-70
2023/07/06 12:03:17;;;;;;;1.80;0.60;;;23.00;77.80;;;;;;5085943;28;46658;-70
2023/07/06 12:05:48;;;;;;;1.80;0.70;;;23.00;78.10;;;;;;5085811;28;45495;-70
2023/07/06 12:08:20;;;;;;;1.00;0.60;;;23.00;78.30;;;;;;5086259;27;45218;-70
2023/07/06 12:10:50;;;;;;;1.83;0.95;;;23.00;78.20;;;;;;5085885;28;45372;-70
2023/07/06 12:13:25;;;;;;;0.75;0.50;;;23.00;78.00;;;;;;5084494;28;47497;-71
2023/07/06 12:15:56;;;;;;;2.22;0.77;;;23.00;78.20;;;;;;5085193;28;45368;-71
2023/07/06 12:18:24;;;;;;;1.38;0.70;;;23.10;80.80;;;;;;5086332;28;45365;-70
2023/07/06 12:20:52;;;;;;;0.57;0.40;;;23.20;81.00;;;;;;5077293;28;45487;-70
2023/07/06 12:23:19;;;;;;;0.80;0.57;;;23.30;80.40;;;;;;5076306;27;45994;-70
2023/07/06 12:25:47;;;;;;;1.58;0.70;;;23.30;78.10;;;;;;5087564;27;45378;-70
2023/07/06 12:28:15;;;;;;;0.90;0.50;;;23.20;77.50;;;;;;5089830;27;45340;-70
2023/07/06 12:30:43;;;;;;;1.27;0.70;;;23.20;77.70;;;;;;5085253;28;45358;-70
2023/07/06 12:33:13;;;;;;;1.83;0.60;;;23.20;77.70;;;;;;5085790;28;47046;-70
2023/07/06 12:35:41;;;;;;;1.10;0.50;;;23.20;77.20;;;;;;5085502;28;45254;-70
2023/07/06 12:38:14;;;;;;;0.73;0.52;;;23.20;76.90;;;;;;5085722;28;45262;-70
2023/07/06 12:40:41;;;;;;;0.60;0.43;;;23.10;76.90;;;;;;5084423;28;45407;-71
2023/07/06 12:43:17;;;;;;;0.88;0.68;;;23.10;77.20;;;;;;5080529;28;47059;-71
2023/07/06 12:45:44;;;;;;;1.10;0.68;;;23.10;76.70;;;;;;5085347;28;45307;-71
2023/07/06 12:48:20;;;;;;;1.20;0.70;;;23.10;76.80;;;;;;5085506;28;45282;-71
2023/07/06 12:50:50;;;;;;;1.75;0.60;;;23.10;76.30;;;;;;5085027;28;45292;-71
2023/07/06 12:53:24;;;;;;;1.02;0.52;;;23.10;76.50;;;;;;5085104;28;46425;-71
2023/07/06 12:55:52;;;;;;;1.17;0.70;;;23.10;76.30;;;;;;5085857;28;45305;-71
2023/07/06 12:58:27;;;;;;;0.88;0.50;;;23.10;76.70;;;;;;5085700;27;45238;-71
2023/07/06 13:01:01;;;;;;;1.15;0.60;;;23.10;76.60;;;;;;5082082;27;45397;-71
2023/07/06 13:03:28;;;;;;;0.93;0.50;;;23.00;76.50;;;;;;5085562;28;45466;-71